createdAt,value
2023-05-23T00:02:27.597Z,100788.63
2023-05-23T00:04:59.274Z,100787.13
2023-05-23T00:07:27.666Z,100791.06
2023-05-23T00:09:55.933Z,100789.66
2023-05-23T00:12:24.223Z,100801.03
2023-05-23T00:14:54.399Z,100792.44
2023-05-23T00:17:26.192Z,100796.09
2023-05-23T00:19:56.836Z,100790.22
2023-05-23T00:22:25.151Z,100790.09
2023-05-23T00:24:54.050Z,100795.81
2023-05-23T00:27:22.373Z,100795.63
2023-05-23T00:29:51.120Z,100791.47
2023-05-23T00:32:19.617Z,100790.72
2023-05-23T00:34:47.928Z,100784.84
2023-05-23T00:37:16.309Z,100788.75
2023-05-23T00:39:44.530Z,100785.34
2023-05-23T00:42:12.837Z,100784.91
2023-05-23T00:44:41.332Z,100784.34
2023-05-23T00:47:09.835Z,100791.13
2023-05-23T00:49:38.311Z,100791.38
2023-05-23T00:52:06.959Z,100792.00
2023-05-23T00:54:37.646Z,100796.72
2023-05-23T00:57:06.372Z,100801.53
2023-05-23T00:59:38.186Z,100800.53
2023-05-23T01:02:06.798Z,100796.72
2023-05-23T01:04:36.914Z,100807.78
2023-05-23T01:07:05.336Z,100808.78
2023-05-23T01:09:33.776Z,100812.44
2023-05-23T01:12:11.412Z,100818.56
2023-05-23T01:14:58.189Z,100811.91
2023-05-23T01:17:37.042Z,100816.31
2023-05-23T01:20:13.875Z,100809.63
2023-05-23T01:22:57.039Z,100808.75
2023-05-23T01:25:51.455Z,100815.03
2023-05-23T01:28:23.198Z,100822.16
2023-05-23T01:30:57.200Z,100816.13
2023-05-23T01:33:27.053Z,100819.75
2023-05-23T01:35:57.751Z,100813.91
2023-05-23T01:38:26.002Z,100823.47
2023-05-23T01:40:55.414Z,100823.19
2023-05-23T01:43:26.138Z,100817.94
2023-05-23T01:45:57.536Z,100823.59
2023-05-23T01:48:28.118Z,100824.53
2023-05-23T01:50:58.074Z,100822.84
2023-05-23T01:53:27.829Z,100837.50
2023-05-23T01:55:56.787Z,100831.91
2023-05-23T01:58:25.104Z,100841.97
2023-05-23T02:00:53.530Z,100833.28
2023-05-23T02:03:22.012Z,100836.66
2023-05-23T02:05:50.400Z,100834.50
2023-05-23T02:08:18.644Z,100844.72
2023-05-23T02:10:46.924Z,100845.50
2023-05-23T02:13:15.150Z,100836.13
2023-05-23T02:15:43.464Z,100840.72
2023-05-23T02:18:11.841Z,100841.06
2023-05-23T02:20:40.108Z,100843.84
2023-05-23T02:23:08.441Z,100849.66
2023-05-23T02:25:36.873Z,100849.03
2023-05-23T02:28:05.152Z,100854.72
2023-05-23T02:30:33.448Z,100858.78
2023-05-23T02:33:07.194Z,100863.63
2023-05-23T02:35:35.808Z,100855.63
2023-05-23T02:38:04.081Z,100862.44
2023-05-23T02:40:32.283Z,100867.84
2023-05-23T02:43:00.559Z,100869.06
2023-05-23T02:45:28.803Z,100870.69
2023-05-23T02:47:57.129Z,100866.34
2023-05-23T02:50:25.500Z,100877.56
2023-05-23T02:52:53.774Z,100871.63
2023-05-23T02:55:22.552Z,100876.03
2023-05-23T02:57:51.158Z,100877.78
2023-05-23T03:00:19.663Z,100874.44
2023-05-23T03:02:47.949Z,100881.25
2023-05-23T03:05:16.463Z,100884.13
2023-05-23T03:07:44.893Z,100890.69
2023-05-23T03:10:13.399Z,100886.25
2023-05-23T03:12:41.975Z,100887.88
2023-05-23T03:15:10.939Z,100886.16
2023-05-23T03:17:39.367Z,100889.91
2023-05-23T03:20:10.588Z,100887.41
2023-05-23T03:22:38.864Z,100887.78
2023-05-23T03:25:07.785Z,100887.72
2023-05-23T03:27:36.663Z,100886.13
2023-05-23T03:30:07.011Z,100889.09
2023-05-23T03:32:35.508Z,100890.16
2023-05-23T03:35:04.272Z,100889.47
2023-05-23T03:37:33.019Z,100893.13
2023-05-23T03:40:01.513Z,100897.91
2023-05-23T03:42:30.208Z,100897.59
2023-05-23T03:44:58.452Z,100894.16
2023-05-23T03:47:27.175Z,100902.84
2023-05-23T03:49:55.518Z,100899.50
2023-05-23T03:52:24.361Z,100901.78
2023-05-23T03:54:53.071Z,100900.34
2023-05-23T03:57:21.316Z,100900.28
2023-05-23T03:59:49.927Z,100909.81
2023-05-23T04:02:18.286Z,100906.84
2023-05-23T04:04:47.803Z,100907.38
2023-05-23T04:07:16.614Z,100909.41
2023-05-23T04:09:45.255Z,100912.94
2023-05-23T04:12:13.541Z,100920.28
2023-05-23T04:14:41.886Z,100918.13
2023-05-23T04:17:10.193Z,100917.69
2023-05-23T04:19:38.617Z,100927.75
2023-05-23T04:22:07.166Z,100930.75
2023-05-23T04:24:35.372Z,100920.53
2023-05-23T04:27:03.616Z,100924.53
2023-05-23T04:29:32.579Z,100931.16
2023-05-23T04:32:01.728Z,100934.78
2023-05-23T04:34:31.536Z,100931.25
2023-05-23T04:36:59.946Z,100932.09
2023-05-23T04:39:28.306Z,100943.59
2023-05-23T04:41:57.622Z,100943.53
2023-05-23T04:44:27.625Z,100941.81
2023-05-23T04:46:57.537Z,100939.19
2023-05-23T04:49:26.350Z,100940.91
2023-05-23T04:51:54.606Z,100943.78
2023-05-23T04:54:22.946Z,100949.63
2023-05-23T04:56:52.125Z,100945.47
2023-05-23T04:59:20.342Z,100940.13
2023-05-23T05:01:48.576Z,100933.81
2023-05-23T05:04:17.083Z,100935.53
2023-05-23T05:06:45.758Z,100936.72
2023-05-23T05:09:14.069Z,100939.72
2023-05-23T05:11:42.320Z,100931.06
2023-05-23T05:14:10.571Z,100932.88
2023-05-23T05:16:38.831Z,100940.03
2023-05-23T05:19:07.405Z,100938.25
2023-05-23T05:21:35.676Z,100939.16
2023-05-23T05:24:03.972Z,100939.34
2023-05-23T05:26:32.779Z,100948.53
2023-05-23T05:29:01.041Z,100949.72
2023-05-23T05:31:30.522Z,100944.09
2023-05-23T05:33:58.845Z,100942.75
2023-05-23T05:36:27.135Z,100941.34
2023-05-23T05:38:55.460Z,100942.50
2023-05-23T05:41:24.157Z,100950.63
2023-05-23T05:43:52.504Z,100941.00
2023-05-23T05:46:20.826Z,100942.91
2023-05-23T05:48:49.082Z,100951.94
2023-05-23T05:51:18.726Z,100950.22
2023-05-23T05:53:47.554Z,100950.38
2023-05-23T05:56:15.777Z,100954.94
2023-05-23T05:58:44.220Z,100955.19
2023-05-23T06:01:12.595Z,100955.19
2023-05-23T06:03:41.065Z,100949.97
2023-05-23T06:06:09.855Z,100953.44
2023-05-23T06:08:38.114Z,100946.53
2023-05-23T06:11:06.618Z,100953.91
2023-05-23T06:13:34.907Z,100951.31
2023-05-23T06:16:03.151Z,100952.19
2023-05-23T06:18:31.379Z,100951.47
2023-05-23T06:20:59.642Z,100947.13
2023-05-23T06:23:27.900Z,100936.59
2023-05-23T06:25:56.292Z,100943.97
2023-05-23T06:28:24.537Z,100942.41
2023-05-23T06:30:52.789Z,100941.09
2023-05-23T06:33:21.808Z,100936.03
2023-05-23T06:35:50.084Z,100933.50
2023-05-23T06:38:18.349Z,100934.59
2023-05-23T06:40:46.692Z,100934.72
2023-05-23T06:43:14.946Z,100930.56
2023-05-23T06:45:43.178Z,100929.06
2023-05-23T06:48:12.530Z,100933.75
2023-05-23T06:50:41.942Z,100929.78
2023-05-23T06:53:10.500Z,100931.00
2023-05-23T06:55:38.708Z,100932.03
2023-05-23T06:58:07.366Z,100933.03
2023-05-23T07:00:35.598Z,100932.25
2023-05-23T07:03:04.526Z,100940.38
2023-05-23T07:05:34.092Z,100942.53
2023-05-23T07:08:02.351Z,100944.53
2023-05-23T07:10:30.648Z,100940.28
2023-05-23T07:12:58.875Z,100944.09
2023-05-23T07:15:27.097Z,100940.91
2023-05-23T07:17:55.456Z,100942.88
2023-05-23T07:20:23.832Z,100943.06
2023-05-23T07:22:52.493Z,100945.09
2023-05-23T07:25:20.805Z,100939.91
2023-05-23T07:27:49.073Z,100944.63
2023-05-23T07:30:17.696Z,100950.16
2023-05-23T07:32:45.980Z,100948.72
2023-05-23T07:35:14.238Z,100938.16
2023-05-23T07:37:42.808Z,100943.78
2023-05-23T07:40:11.406Z,100952.84
2023-05-23T07:42:39.661Z,100945.88
2023-05-23T07:45:08.466Z,100944.28
2023-05-23T07:47:36.713Z,100948.00
2023-05-23T07:50:05.857Z,100949.03
2023-05-23T07:52:34.340Z,100945.59
2023-05-23T07:55:02.590Z,100943.13
2023-05-23T07:57:31.298Z,100945.06
2023-05-23T07:59:59.647Z,100942.56
2023-05-23T08:02:27.965Z,100939.25
2023-05-23T08:04:57.797Z,100943.97
2023-05-23T08:07:26.197Z,100944.09
2023-05-23T08:09:54.528Z,100945.09
2023-05-23T08:12:22.774Z,100944.34
2023-05-23T08:14:52.432Z,100947.13
2023-05-23T08:17:21.145Z,100948.31
2023-05-23T08:19:49.486Z,100945.72
2023-05-23T08:22:17.882Z,100950.16
2023-05-23T08:24:46.115Z,100952.03
2023-05-23T08:27:14.434Z,100947.72
2023-05-23T08:29:43.691Z,100949.56
2023-05-23T08:32:12.045Z,100940.84
2023-05-23T08:34:41.538Z,100945.47
2023-05-23T08:37:09.812Z,100947.38
2023-05-23T08:39:38.089Z,100943.25
2023-05-23T08:42:06.966Z,100946.00
2023-05-23T08:44:35.255Z,100948.84
2023-05-23T08:47:06.618Z,100950.81
2023-05-23T08:49:35.701Z,100942.16
2023-05-23T08:52:04.769Z,100942.22
2023-05-23T08:54:33.573Z,100947.66
2023-05-23T08:57:03.074Z,100952.16
2023-05-23T08:59:33.461Z,100944.16
2023-05-23T09:02:04.196Z,100941.63
2023-05-23T09:04:33.792Z,100946.97
2023-05-23T09:07:03.883Z,100943.47
2023-05-23T09:09:33.169Z,100947.19
2023-05-23T09:12:04.310Z,100944.66
2023-05-23T09:14:33.407Z,100943.09
2023-05-23T09:17:04.986Z,100939.72
2023-05-23T09:19:34.235Z,100945.91
2023-05-23T09:22:04.657Z,100948.50
2023-05-23T09:24:37.895Z,100944.13
2023-05-23T09:27:10.318Z,100950.41
2023-05-23T09:29:42.207Z,100947.75
2023-05-23T09:32:18.840Z,100947.88
2023-05-23T09:34:50.079Z,100949.78
2023-05-23T09:37:20.292Z,100945.31
2023-05-23T09:39:50.044Z,100942.72
2023-05-23T09:42:26.479Z,100938.22
2023-05-23T09:44:55.326Z,100938.28
2023-05-23T09:47:23.624Z,100923.25
2023-05-23T09:49:52.419Z,100927.63
2023-05-23T09:52:23.466Z,100920.50
2023-05-23T09:54:52.204Z,100937.25
2023-05-23T09:57:24.129Z,100926.59
2023-05-23T09:59:56.023Z,100932.03
2023-05-23T10:03:00.059Z,100925.91
2023-05-23T10:05:50.605Z,100933.88
2023-05-23T10:08:39.835Z,100930.28
2023-05-23T10:11:36.783Z,100924.97
2023-05-23T10:14:08.962Z,100927.66
2023-05-23T10:17:19.865Z,100918.78
2023-05-23T10:20:09.194Z,100927.66
2023-05-23T10:22:39.103Z,100920.69
2023-05-23T10:25:09.443Z,100927.66
2023-05-23T10:27:41.432Z,100924.09
2023-05-23T10:30:10.507Z,100925.72
2023-05-23T10:32:41.458Z,100928.31
2023-05-23T10:35:33.973Z,100924.91
2023-05-23T10:38:25.825Z,100931.09
2023-05-23T10:41:09.669Z,100934.56
2023-05-23T10:43:46.997Z,100933.59
2023-05-23T10:46:16.296Z,100926.28
2023-05-23T10:48:45.895Z,100929.72
2023-05-23T10:51:16.075Z,100930.56
2023-05-23T10:53:46.756Z,100939.38
2023-05-23T10:56:24.645Z,100943.78
2023-05-23T10:58:57.673Z,100942.78
2023-05-23T11:01:26.395Z,100943.66
2023-05-23T11:03:56.113Z,100931.34
2023-05-23T11:06:30.712Z,100927.84
2023-05-23T11:09:10.879Z,100930.50
2023-05-23T11:11:54.789Z,100935.97
2023-05-23T11:14:54.881Z,100938.72
2023-05-23T11:17:34.882Z,100935.31
2023-05-23T11:20:08.061Z,100934.44
2023-05-23T11:22:37.539Z,100935.38
2023-05-23T11:25:10.944Z,100931.00
2023-05-23T11:27:41.349Z,100918.66
2023-05-23T11:30:16.726Z,100919.41
2023-05-23T11:32:53.403Z,100928.94
2023-05-23T11:35:22.752Z,100930.56
2023-05-23T11:37:51.513Z,100932.19
2023-05-23T11:40:34.459Z,100935.66
2023-05-23T11:43:05.917Z,100939.09
2023-05-23T11:45:35.915Z,100940.81
2023-05-23T11:48:12.865Z,100946.97
2023-05-23T11:50:55.366Z,100945.00
2023-05-23T11:53:26.591Z,100938.63
2023-05-23T11:56:02.938Z,100942.16
2023-05-23T11:58:34.401Z,100944.88
2023-05-23T12:01:09.904Z,100953.78
2023-05-23T12:03:52.222Z,100959.97
2023-05-23T12:06:20.931Z,100952.91
2023-05-23T12:08:49.487Z,100943.13
2023-05-23T12:11:18.817Z,100954.59
2023-05-23T12:13:47.319Z,100951.78
2023-05-23T12:16:16.655Z,100954.44
2023-05-23T12:18:45.140Z,100955.16
2023-05-23T12:21:13.773Z,100945.44
2023-05-23T12:23:43.478Z,100952.63
2023-05-23T12:26:11.840Z,100956.25
2023-05-23T12:28:44.005Z,100962.59
2023-05-23T12:31:17.878Z,100970.59
2023-05-23T12:33:48.751Z,100967.03
2023-05-23T12:36:23.780Z,100967.03
2023-05-23T12:38:52.313Z,100963.38
2023-05-23T12:41:22.810Z,100963.38
2023-05-23T12:43:56.083Z,100974.03
2023-05-23T12:46:26.389Z,100980.22
2023-05-23T12:48:55.496Z,100978.41
2023-05-23T12:51:24.029Z,100983.63
2023-05-23T12:53:52.722Z,100978.25
2023-05-23T12:56:23.405Z,100979.19
2023-05-23T12:58:52.377Z,100984.50
2023-05-23T13:01:22.540Z,100983.75
2023-05-23T13:03:51.218Z,100978.59
2023-05-23T13:06:19.562Z,100973.22
2023-05-23T13:08:49.893Z,100973.09
2023-05-23T13:11:19.052Z,100984.44
2023-05-23T13:13:48.153Z,100986.13
2023-05-23T13:16:17.262Z,100983.38
2023-05-23T13:18:45.569Z,100982.44
2023-05-23T13:21:14.002Z,100978.81
2023-05-23T13:23:42.539Z,100983.19
2023-05-23T13:26:10.900Z,100983.91
2023-05-23T13:28:39.165Z,100980.28
2023-05-23T13:31:07.645Z,100989.03
2023-05-23T13:33:36.003Z,100984.41
2023-05-23T13:36:04.345Z,100983.44
2023-05-23T13:38:33.159Z,100984.06
2023-05-23T13:41:01.460Z,100989.38
2023-05-23T13:43:29.749Z,100992.03
2023-05-23T13:45:57.987Z,100989.38
2023-05-23T13:48:26.308Z,100991.13
2023-05-23T13:50:54.750Z,100998.06
2023-05-23T13:53:23.075Z,100995.31
2023-05-23T13:55:51.689Z,100996.16
2023-05-23T13:58:20.098Z,100993.34
2023-05-23T14:00:48.475Z,100993.09
2023-05-23T14:03:16.799Z,100991.25
2023-05-23T14:05:45.143Z,100992.03
2023-05-23T14:08:14.834Z,100995.53
2023-05-23T14:10:43.409Z,101000.72
2023-05-23T14:13:12.825Z,100993.59
2023-05-23T14:15:42.962Z,101000.69
2023-05-23T14:18:11.527Z,100998.00
2023-05-23T14:20:39.843Z,100992.59
2023-05-23T14:23:08.102Z,100999.75
2023-05-23T14:25:36.571Z,101007.66
2023-05-23T14:28:04.834Z,101012.00
2023-05-23T14:30:33.058Z,101012.06
2023-05-23T14:33:01.343Z,101002.34
2023-05-23T14:35:30.489Z,101006.72
2023-05-23T14:37:58.713Z,101000.50
2023-05-23T14:40:27.033Z,101000.50
2023-05-23T14:42:55.242Z,100996.13
2023-05-23T14:45:23.582Z,101003.28
2023-05-23T14:47:52.432Z,100997.00
2023-05-23T14:50:20.787Z,100999.91
2023-05-23T14:52:49.100Z,101002.69
2023-05-23T14:55:17.856Z,101005.38
2023-05-23T14:57:46.222Z,100998.97
2023-05-23T15:00:15.006Z,101013.94
2023-05-23T15:02:43.548Z,101011.88
2023-05-23T15:05:12.002Z,101013.47
2023-05-23T15:07:40.376Z,101014.06
2023-05-23T15:10:09.407Z,101007.56
2023-05-23T15:12:37.898Z,101000.06
2023-05-23T15:15:06.873Z,101008.50
2023-05-23T15:17:35.560Z,101016.06
2023-05-23T15:20:06.786Z,101015.78
2023-05-23T15:22:39.853Z,101011.13
2023-05-23T15:25:10.389Z,101011.94
2023-05-23T15:27:38.787Z,101017.94
2023-05-23T15:30:07.800Z,101017.66
2023-05-23T15:32:38.083Z,101016.50
2023-05-23T15:35:07.036Z,101014.34
2023-05-23T15:37:35.359Z,101011.34
2023-05-23T15:40:05.045Z,101004.75
2023-05-23T15:42:33.331Z,101018.13
2023-05-23T15:45:01.793Z,101020.81
2023-05-23T15:47:30.213Z,101012.53
2023-05-23T15:49:58.474Z,101010.78
2023-05-23T15:52:26.906Z,101006.19
2023-05-23T15:54:55.288Z,101016.75
2023-05-23T15:57:23.761Z,101008.50
2023-05-23T15:59:52.367Z,101015.16
2023-05-23T16:02:20.838Z,101010.13
2023-05-23T16:04:49.259Z,101013.28
2023-05-23T16:07:18.524Z,101007.47
2023-05-23T16:09:46.907Z,101009.53
2023-05-23T16:12:15.238Z,101010.81
2023-05-23T16:14:43.552Z,101008.69
2023-05-23T16:17:11.812Z,101016.19
2023-05-23T16:19:40.266Z,101012.34
2023-05-23T16:22:08.595Z,101005.13
2023-05-23T16:24:37.212Z,101001.59
2023-05-23T16:27:05.721Z,101000.50
2023-05-23T16:29:34.003Z,100996.97
2023-05-23T16:32:02.480Z,101002.22
2023-05-23T16:34:31.234Z,101003.84
2023-05-23T16:36:59.490Z,101004.56
2023-05-23T16:39:27.870Z,101004.44
2023-05-23T16:41:56.839Z,100999.63
2023-05-23T16:44:26.544Z,101012.63
2023-05-23T16:46:54.877Z,101013.97
2023-05-23T16:49:23.102Z,101014.19
2023-05-23T16:51:51.498Z,101013.81
2023-05-23T16:54:19.768Z,101011.75
2023-05-23T16:56:48.102Z,101011.53
2023-05-23T16:59:16.405Z,101015.47
2023-05-23T17:01:44.922Z,101013.19
2023-05-23T17:04:13.225Z,101016.34
2023-05-23T17:06:41.660Z,101011.84
2023-05-23T17:09:09.955Z,101010.25
2023-05-23T17:11:38.178Z,101010.81
2023-05-23T17:14:06.419Z,101006.47
2023-05-23T17:16:35.254Z,101011.78
2023-05-23T17:19:03.627Z,101001.91
2023-05-23T17:21:32.311Z,101004.69
2023-05-23T17:24:00.578Z,101009.91
2023-05-23T17:26:28.861Z,101013.09
2023-05-23T17:28:57.258Z,101007.03
2023-05-23T17:31:26.008Z,101011.03
2023-05-23T17:33:55.096Z,101000.78
2023-05-23T17:36:23.506Z,101005.09
2023-05-23T17:38:54.504Z,101002.88
2023-05-23T17:41:25.872Z,100996.56
2023-05-23T17:43:54.155Z,101003.44
2023-05-23T17:46:22.591Z,100994.66
2023-05-23T17:48:51.154Z,101000.31
2023-05-23T17:51:19.407Z,101006.69
2023-05-23T17:53:47.728Z,101001.00
2023-05-23T17:56:15.960Z,101006.50
2023-05-23T17:58:44.558Z,101007.31
2023-05-23T18:01:14.251Z,101001.25
2023-05-23T18:03:42.575Z,101005.59
2023-05-23T18:06:10.973Z,100996.09
2023-05-23T18:08:39.256Z,100996.03
2023-05-23T18:11:07.534Z,100992.56
2023-05-23T18:13:35.779Z,100987.84
2023-05-23T18:16:04.101Z,100994.19
2023-05-23T18:18:32.590Z,100995.03
2023-05-23T18:21:00.974Z,100994.94
2023-05-23T18:23:29.273Z,100993.50
2023-05-23T18:25:57.789Z,100988.13
2023-05-23T18:28:26.106Z,100996.00
2023-05-23T18:30:54.344Z,100987.63
2023-05-23T18:33:22.973Z,100989.91
2023-05-23T18:35:52.345Z,100989.31
2023-05-23T18:38:20.804Z,100993.78
2023-05-23T18:40:49.094Z,100991.53
2023-05-23T18:43:18.272Z,100991.09
2023-05-23T18:45:46.578Z,100988.78
2023-05-23T18:48:15.570Z,100984.47
2023-05-23T18:50:44.259Z,100984.00
2023-05-23T18:53:12.953Z,100995.31
2023-05-23T18:55:41.273Z,101001.25
2023-05-23T18:58:09.618Z,101000.94
2023-05-23T19:00:38.399Z,101001.59
2023-05-23T19:03:06.766Z,100991.06
2023-05-23T19:05:35.193Z,100995.34
2023-05-23T19:08:04.345Z,100987.81
2023-05-23T19:10:32.598Z,100985.44
2023-05-23T19:13:00.852Z,100986.75
2023-05-23T19:15:29.168Z,100982.44
2023-05-23T19:17:57.710Z,100984.81
2023-05-23T19:20:26.062Z,100983.50
2023-05-23T19:22:54.688Z,100975.44
2023-05-23T19:25:23.101Z,100979.31
2023-05-23T19:27:51.828Z,100980.25
2023-05-23T19:30:20.194Z,100972.34
2023-05-23T19:32:48.592Z,100979.78
2023-05-23T19:35:17.238Z,100968.28
2023-05-23T19:37:45.949Z,100968.97
2023-05-23T19:40:14.520Z,100961.63
2023-05-23T19:42:42.845Z,100969.53
2023-05-23T19:45:11.639Z,100964.78
2023-05-23T19:47:40.004Z,100962.06
2023-05-23T19:50:13.506Z,100949.38
2023-05-23T19:52:42.857Z,100959.75
2023-05-23T19:55:11.539Z,100968.75
2023-05-23T19:57:39.799Z,100964.50
2023-05-23T20:00:10.653Z,100960.69
2023-05-23T20:02:39.436Z,100965.41
2023-05-23T20:05:09.060Z,100961.50
2023-05-23T20:07:37.470Z,100955.72
2023-05-23T20:10:06.177Z,100946.53
2023-05-23T20:12:35.057Z,100945.16
2023-05-23T20:15:06.573Z,100939.88
2023-05-23T20:17:35.876Z,100939.16
2023-05-23T20:20:05.039Z,100934.00
2023-05-23T20:22:33.359Z,100924.25
2023-05-23T20:25:02.168Z,100930.88
2023-05-23T20:27:30.436Z,100935.94
2023-05-23T20:29:58.885Z,100932.25
2023-05-23T20:32:27.278Z,100931.00
2023-05-23T20:34:56.138Z,100932.84
2023-05-23T20:37:24.378Z,100925.69
2023-05-23T20:39:53.184Z,100924.44
2023-05-23T20:42:21.657Z,100921.75
2023-05-23T20:44:50.070Z,100920.59
2023-05-23T20:47:18.637Z,100904.66
2023-05-23T20:49:48.433Z,100904.59
2023-05-23T20:52:16.705Z,100898.56
2023-05-23T20:54:45.027Z,100892.34
2023-05-23T20:57:13.774Z,100892.75
2023-05-23T20:59:42.061Z,100896.34
2023-05-23T21:02:10.506Z,100894.25
2023-05-23T21:04:38.862Z,100889.22
2023-05-23T21:07:07.126Z,100898.66
2023-05-23T21:09:35.396Z,100892.13
2023-05-23T21:12:03.638Z,100890.81
2023-05-23T21:14:32.234Z,100883.81
2023-05-23T21:17:00.487Z,100887.22
2023-05-23T21:19:28.845Z,100879.16
2023-05-23T21:21:57.294Z,100872.03
2023-05-23T21:24:25.559Z,100879.91
2023-05-23T21:26:53.901Z,100878.22
2023-05-23T21:29:22.181Z,100875.66
2023-05-23T21:31:50.662Z,100871.78
2023-05-23T21:34:24.017Z,100879.78
2023-05-23T21:36:53.815Z,100875.06
2023-05-23T21:39:22.205Z,100876.63
2023-05-23T21:41:50.480Z,100866.91
2023-05-23T21:44:19.516Z,100861.91
2023-05-23T21:46:47.934Z,100869.72
2023-05-23T21:49:16.488Z,100875.03
2023-05-23T21:51:44.959Z,100874.97
2023-05-23T21:54:13.282Z,100884.53
2023-05-23T21:56:41.946Z,100884.28
2023-05-23T21:59:10.782Z,100870.69
2023-05-23T22:01:39.110Z,100875.72
2023-05-23T22:04:07.816Z,100880.84
2023-05-23T22:06:36.384Z,100876.84
2023-05-23T22:09:04.716Z,100882.25
2023-05-23T22:11:34.763Z,100885.41
2023-05-23T22:14:03.408Z,100881.56
2023-05-23T22:16:39.975Z,100885.72
2023-05-23T22:19:10.596Z,100890.78
2023-05-23T22:21:39.023Z,100878.03
2023-05-23T22:24:07.568Z,100887.47
2023-05-23T22:26:35.856Z,100883.03
2023-05-23T22:29:04.484Z,100887.59
2023-05-23T22:31:33.007Z,100887.03
2023-05-23T22:34:01.294Z,100881.88
2023-05-23T22:36:29.562Z,100874.19
2023-05-23T22:38:57.797Z,100876.47
2023-05-23T22:41:26.037Z,100881.28
2023-05-23T22:43:54.357Z,100872.69
2023-05-23T22:46:22.791Z,100873.78
2023-05-23T22:48:53.349Z,100872.66
2023-05-23T22:51:22.246Z,100873.16
2023-05-23T22:53:50.558Z,100874.19
2023-05-23T22:56:18.999Z,100872.56
2023-05-23T22:58:47.252Z,100870.84
2023-05-23T23:01:15.590Z,100876.97
2023-05-23T23:03:43.964Z,100866.91
2023-05-23T23:06:13.138Z,100870.50
2023-05-23T23:08:41.401Z,100863.50
2023-05-23T23:11:09.702Z,100860.59
2023-05-23T23:13:38.011Z,100860.75
2023-05-23T23:16:07.401Z,100853.00
2023-05-23T23:18:35.662Z,100854.44
2023-05-23T23:21:03.976Z,100849.03
2023-05-23T23:23:32.262Z,100841.91
2023-05-23T23:26:01.114Z,100851.31
2023-05-23T23:28:29.353Z,100850.97
2023-05-23T23:30:57.641Z,100861.59
2023-05-23T23:33:25.908Z,100845.88
2023-05-23T23:35:54.533Z,100842.03
2023-05-23T23:38:22.845Z,100845.56
2023-05-23T23:40:51.556Z,100842.06
2023-05-23T23:43:19.889Z,100842.47
2023-05-23T23:45:48.209Z,100832.41
2023-05-23T23:48:16.547Z,100838.81
2023-05-23T23:50:45.017Z,100838.53
2023-05-23T23:53:13.477Z,100832.63
2023-05-23T23:55:41.798Z,100830.47
2023-05-23T23:58:10.044Z,100826.16
